sensor_id;sensor_type;location;lat;lon;timestamp;temperature;humidity
33645;DHT22;19986;48.190;16.366;2024-01-10T00:00:01;-1.80;99.90
33645;DHT22;19986;48.190;16.366;2024-01-10T00:02:28;-1.80;99.90
33645;DHT22;19986;48.190;16.366;2024-01-10T00:04:56;-1.80;99.90
33645;DHT22;19986;48.190;16.366;2024-01-10T00:07:22;-1.80;99.90
33645;DHT22;19986;48.190;16.366;2024-01-10T00:09:49;-1.90;99.90
33645;DHT22;19986;48.190;16.366;2024-01-10T00:12:17;-1.80;99.90
33645;DHT22;19986;48.190;16.366;2024-01-10T00:14:43;-1.80;99.90
33645;DHT22;19986;48.190;16.366;2024-01-10T00:17:09;-1.90;99.90
33645;DHT22;19986;48.190;16.366;2024-01-10T00:19:35;-1.90;99.90
33645;DHT22;19986;48.190;16.366;2024-01-10T00:22:01;-1.90;99.90
33645;DHT22;19986;48.190;16.366;2024-01-10T00:24:27;-2.00;99.90
33645;DHT22;19986;48.190;16.366;2024-01-10T00:26:53;-2.10;99.90
33645;DHT22;19986;48.190;16.366;2024-01-10T00:29:19;-2.20;99.90
33645;DHT22;19986;48.190;16.366;2024-01-10T00:31:45;-2.20;99.90
33645;DHT22;19986;48.190;16.366;2024-01-10T00:34:11;-2.20;99.90
33645;DHT22;19986;48.190;16.366;2024-01-10T00:36:37;-2.20;99.90
33645;DHT22;19986;48.190;16.366;2024-01-10T00:39:03;-2.20;99.90
33645;DHT22;19986;48.190;16.366;2024-01-10T00:41:32;-2.20;99.90
33645;DHT22;19986;48.190;16.366;2024-01-10T00:43:58;-2.30;99.90
33645;DHT22;19986;48.190;16.366;2024-01-10T00:46:24;-2.30;99.90
33645;DHT22;19986;48.190;16.366;2024-01-10T00:48:50;-2.30;99.90
33645;DHT22;19986;48.190;16.366;2024-01-10T00:51:16;-2.30;99.90
33645;DHT22;19986;48.190;16.366;2024-01-10T00:53:42;-2.20;99.90
33645;DHT22;19986;48.190;16.366;2024-01-10T00:56:12;-2.40;99.90
33645;DHT22;19986;48.190;16.366;2024-01-10T00:58:38;-2.30;99.90
33645;DHT22;19986;48.190;16.366;2024-01-10T01:01:06;-2.30;99.90
33645;DHT22;19986;48.190;16.366;2024-01-10T01:03:34;-2.30;99.90
33645;DHT22;19986;48.190;16.366;2024-01-10T01:06:02;-2.30;99.90
33645;DHT22;19986;48.190;16.366;2024-01-10T01:08:28;-2.20;99.90
33645;DHT22;19986;48.190;16.366;2024-01-10T01:10:54;-2.30;99.90
33645;DHT22;19986;48.190;16.366;2024-01-10T01:13:21;-2.20;99.90
33645;DHT22;19986;48.190;16.366;2024-01-10T01:15:47;-2.20;99.90
33645;DHT22;19986;48.190;16.366;2024-01-10T01:18:14;-2.20;99.90
33645;DHT22;19986;48.190;16.366;2024-01-10T01:20:41;-2.10;99.90
33645;DHT22;19986;48.190;16.366;2024-01-10T01:23:11;-2.20;99.90
33645;DHT22;19986;48.190;16.366;2024-01-10T01:25:37;-2.30;99.90
33645;DHT22;19986;48.190;16.366;2024-01-10T01:28:03;-2.40;99.90
33645;DHT22;19986;48.190;16.366;2024-01-10T01:30:29;-2.40;99.90
33645;DHT22;19986;48.190;16.366;2024-01-10T01:32:55;-2.40;99.90
33645;DHT22;19986;48.190;16.366;2024-01-10T01:35:22;-2.40;99.90
33645;DHT22;19986;48.190;16.366;2024-01-10T01:37:49;-2.30;99.90
33645;DHT22;19986;48.190;16.366;2024-01-10T01:40:19;-2.40;99.90
33645;DHT22;19986;48.190;16.366;2024-01-10T01:42:46;-2.40;99.90
33645;DHT22;19986;48.190;16.366;2024-01-10T01:45:13;-2.50;99.90
33645;DHT22;19986;48.190;16.366;2024-01-10T01:47:40;-2.50;99.90
33645;DHT22;19986;48.190;16.366;2024-01-10T01:50:10;-2.50;99.90
33645;DHT22;19986;48.190;16.366;2024-01-10T01:52:37;-2.50;99.90
33645;DHT22;19986;48.190;16.366;2024-01-10T01:55:06;-2.50;99.90
33645;DHT22;19986;48.190;16.366;2024-01-10T01:57:35;-2.50;99.90
33645;DHT22;19986;48.190;16.366;2024-01-10T02:00:05;-2.50;99.90
33645;DHT22;19986;48.190;16.366;2024-01-10T02:02:31;-2.50;99.90
33645;DHT22;19986;48.190;16.366;2024-01-10T02:04:58;-2.60;99.90
33645;DHT22;19986;48.190;16.366;2024-01-10T02:07:28;-2.60;99.90
33645;DHT22;19986;48.190;16.366;2024-01-10T02:09:57;-2.60;99.90
33645;DHT22;19986;48.190;16.366;2024-01-10T02:12:24;-2.60;99.90
33645;DHT22;19986;48.190;16.366;2024-01-10T02:14:51;-2.60;99.90
33645;DHT22;19986;48.190;16.366;2024-01-10T02:17:18;-2.60;99.90
33645;DHT22;19986;48.190;16.366;2024-01-10T02:19:44;-2.60;99.90
33645;DHT22;19986;48.190;16.366;2024-01-10T02:22:11;-2.60;99.90
33645;DHT22;19986;48.190;16.366;2024-01-10T02:24:38;-2.60;99.90
33645;DHT22;19986;48.190;16.366;2024-01-10T02:27:05;-2.70;99.90
33645;DHT22;19986;48.190;16.366;2024-01-10T02:29:34;-2.70;99.90
33645;DHT22;19986;48.190;16.366;2024-01-10T02:32:01;-2.60;99.90
33645;DHT22;19986;48.190;16.366;2024-01-10T02:34:29;-2.70;99.90
33645;DHT22;19986;48.190;16.366;2024-01-10T02:36:56;-2.70;99.90
33645;DHT22;19986;48.190;16.366;2024-01-10T02:39:23;-2.80;99.90
33645;DHT22;19986;48.190;16.366;2024-01-10T02:41:49;-2.80;99.90
33645;DHT22;19986;48.190;16.366;2024-01-10T02:44:17;-2.80;99.90
33645;DHT22;19986;48.190;16.366;2024-01-10T02:46:44;-2.90;99.90
33645;DHT22;19986;48.190;16.366;2024-01-10T02:49:14;-2.90;99.90
33645;DHT22;19986;48.190;16.366;2024-01-10T02:51:40;-2.90;99.90
33645;DHT22;19986;48.190;16.366;2024-01-10T02:54:06;-3.00;99.90
33645;DHT22;19986;48.190;16.366;2024-01-10T02:56:33;-3.00;99.90
33645;DHT22;19986;48.190;16.366;2024-01-10T02:58:59;-2.90;99.90
33645;DHT22;19986;48.190;16.366;2024-01-10T03:01:26;-3.00;99.90
33645;DHT22;19986;48.190;16.366;2024-01-10T03:03:52;-3.00;99.90
33645;DHT22;19986;48.190;16.366;2024-01-10T03:06:18;-3.10;99.90
33645;DHT22;19986;48.190;16.366;2024-01-10T03:08:44;-3.00;99.90
33645;DHT22;19986;48.190;16.366;2024-01-10T03:11:10;-3.00;99.90
33645;DHT22;19986;48.190;16.366;2024-01-10T03:13:36;-3.00;99.90
33645;DHT22;19986;48.190;16.366;2024-01-10T03:16:04;-3.00;99.90
33645;DHT22;19986;48.190;16.366;2024-01-10T03:18:30;-3.00;99.90
33645;DHT22;19986;48.190;16.366;2024-01-10T03:20:56;-3.00;99.90
33645;DHT22;19986;48.190;16.366;2024-01-10T03:23:27;-3.10;99.90
33645;DHT22;19986;48.190;16.366;2024-01-10T03:25:53;-3.10;99.90
33645;DHT22;19986;48.190;16.366;2024-01-10T03:28:23;-3.10;99.90
33645;DHT22;19986;48.190;16.366;2024-01-10T03:30:52;-3.10;99.90
33645;DHT22;19986;48.190;16.366;2024-01-10T03:33:18;-3.10;99.90
33645;DHT22;19986;48.190;16.366;2024-01-10T03:35:44;-3.10;99.90
33645;DHT22;19986;48.190;16.366;2024-01-10T03:38:10;-3.20;99.90
33645;DHT22;19986;48.190;16.366;2024-01-10T03:40:36;-3.20;99.90
33645;DHT22;19986;48.190;16.366;2024-01-10T03:43:06;-3.20;99.90
33645;DHT22;19986;48.190;16.366;2024-01-10T03:45:38;-3.10;99.90
33645;DHT22;19986;48.190;16.366;2024-01-10T03:48:15;-3.10;99.90
33645;DHT22;19986;48.190;16.366;2024-01-10T03:50:41;-3.20;99.90
33645;DHT22;19986;48.190;16.366;2024-01-10T03:53:07;-3.20;99.90
33645;DHT22;19986;48.190;16.366;2024-01-10T03:55:33;-3.20;99.90
33645;DHT22;19986;48.190;16.366;2024-01-10T03:57:59;-3.20;99.90
33645;DHT22;19986;48.190;16.366;2024-01-10T04:00:25;-3.10;99.90
33645;DHT22;19986;48.190;16.366;2024-01-10T04:02:52;-3.20;99.90
33645;DHT22;19986;48.190;16.366;2024-01-10T04:05:18;-3.20;99.90
33645;DHT22;19986;48.190;16.366;2024-01-10T04:07:46;-3.20;99.90
33645;DHT22;19986;48.190;16.366;2024-01-10T04:10:13;-3.20;99.90
33645;DHT22;19986;48.190;16.366;2024-01-10T04:12:40;-3.10;99.90
33645;DHT22;19986;48.190;16.366;2024-01-10T04:15:07;-3.10;99.90
33645;DHT22;19986;48.190;16.366;2024-01-10T04:17:35;-3.20;99.90
33645;DHT22;19986;48.190;16.366;2024-01-10T04:20:01;-3.10;99.90
33645;DHT22;19986;48.190;16.366;2024-01-10T04:22:28;-3.00;99.90
33645;DHT22;19986;48.190;16.366;2024-01-10T04:24:58;-3.00;99.90
33645;DHT22;19986;48.190;16.366;2024-01-10T04:27:25;-3.00;99.90
33645;DHT22;19986;48.190;16.366;2024-01-10T04:29:50;-3.10;99.90
33645;DHT22;19986;48.190;16.366;2024-01-10T04:32:17;-3.10;99.90
33645;DHT22;19986;48.190;16.366;2024-01-10T04:34:42;-3.10;99.90
33645;DHT22;19986;48.190;16.366;2024-01-10T04:37:10;-3.10;99.90
33645;DHT22;19986;48.190;16.366;2024-01-10T04:39:36;-3.10;99.90
33645;DHT22;19986;48.190;16.366;2024-01-10T04:42:04;-3.10;99.90
33645;DHT22;19986;48.190;16.366;2024-01-10T04:44:32;-3.10;99.90
33645;DHT22;19986;48.190;16.366;2024-01-10T04:46:59;-3.10;99.90
33645;DHT22;19986;48.190;16.366;2024-01-10T04:49:25;-3.10;99.90
33645;DHT22;19986;48.190;16.366;2024-01-10T04:51:51;-3.10;99.90
33645;DHT22;19986;48.190;16.366;2024-01-10T04:54:18;-3.10;99.90
33645;DHT22;19986;48.190;16.366;2024-01-10T04:56:44;-3.10;99.90
33645;DHT22;19986;48.190;16.366;2024-01-10T04:59:10;-3.10;99.90
33645;DHT22;19986;48.190;16.366;2024-01-10T05:01:36;-3.10;99.90
33645;DHT22;19986;48.190;16.366;2024-01-10T05:04:03;-3.10;99.90
33645;DHT22;19986;48.190;16.366;2024-01-10T05:06:31;-3.10;99.90
33645;DHT22;19986;48.190;16.366;2024-01-10T05:08:57;-3.10;99.90
33645;DHT22;19986;48.190;16.366;2024-01-10T05:11:24;-3.10;99.90
33645;DHT22;19986;48.190;16.366;2024-01-10T05:13:52;-3.00;99.90
33645;DHT22;19986;48.190;16.366;2024-01-10T05:16:18;-3.00;99.90
33645;DHT22;19986;48.190;16.366;2024-01-10T05:18:44;-3.00;99.90
33645;DHT22;19986;48.190;16.366;2024-01-10T05:21:10;-3.00;99.90
33645;DHT22;19986;48.190;16.366;2024-01-10T05:23:36;-3.10;99.90
33645;DHT22;19986;48.190;16.366;2024-01-10T05:26:04;-3.00;99.90
33645;DHT22;19986;48.190;16.366;2024-01-10T05:28:30;-3.00;99.90
33645;DHT22;19986;48.190;16.366;2024-01-10T05:30:57;-2.90;99.90
33645;DHT22;19986;48.190;16.366;2024-01-10T05:33:23;-2.90;99.90
33645;DHT22;19986;48.190;16.366;2024-01-10T05:35:49;-2.80;99.90
33645;DHT22;19986;48.190;16.366;2024-01-10T05:38:15;-2.80;99.90
33645;DHT22;19986;48.190;16.366;2024-01-10T05:40:41;-2.80;99.90
33645;DHT22;19986;48.190;16.366;2024-01-10T05:43:07;-2.70;99.90
33645;DHT22;19986;48.190;16.366;2024-01-10T05:45:33;-2.70;99.90
33645;DHT22;19986;48.190;16.366;2024-01-10T05:47:59;-2.70;99.90
33645;DHT22;19986;48.190;16.366;2024-01-10T05:50:25;-2.60;99.90
33645;DHT22;19986;48.190;16.366;2024-01-10T05:52:51;-2.70;99.90
33645;DHT22;19986;48.190;16.366;2024-01-10T05:55:18;-2.70;99.90
33645;DHT22;19986;48.190;16.366;2024-01-10T05:57:45;-2.70;99.90
33645;DHT22;19986;48.190;16.366;2024-01-10T06:00:12;-2.70;99.90
33645;DHT22;19986;48.190;16.366;2024-01-10T06:02:42;-2.70;99.90
33645;DHT22;19986;48.190;16.366;2024-01-10T06:05:10;-2.80;99.90
33645;DHT22;19986;48.190;16.366;2024-01-10T06:07:40;-2.80;99.90
33645;DHT22;19986;48.190;16.366;2024-01-10T06:10:09;-2.80;99.90
33645;DHT22;19986;48.190;16.366;2024-01-10T06:12:35;-2.90;99.90
33645;DHT22;19986;48.190;16.366;2024-01-10T06:15:01;-2.90;99.90
33645;DHT22;19986;48.190;16.366;2024-01-10T06:17:28;-2.90;99.90
33645;DHT22;19986;48.190;16.366;2024-01-10T06:19:54;-2.90;99.90
33645;DHT22;19986;48.190;16.366;2024-01-10T06:22:20;-2.80;99.90
33645;DHT22;19986;48.190;16.366;2024-01-10T06:24:51;-2.80;99.90
33645;DHT22;19986;48.190;16.366;2024-01-10T06:27:18;-2.80;99.90
33645;DHT22;19986;48.190;16.366;2024-01-10T06:29:44;-2.80;99.90
33645;DHT22;19986;48.190;16.366;2024-01-10T06:32:11;-2.70;99.90
33645;DHT22;19986;48.190;16.366;2024-01-10T06:34:37;-2.60;99.90
33645;DHT22;19986;48.190;16.366;2024-01-10T06:37:03;-2.70;99.90
33645;DHT22;19986;48.190;16.366;2024-01-10T06:39:29;-2.70;99.90
33645;DHT22;19986;48.190;16.366;2024-01-10T06:41:55;-2.70;99.90
33645;DHT22;19986;48.190;16.366;2024-01-10T06:44:22;-2.70;99.90
33645;DHT22;19986;48.190;16.366;2024-01-10T06:46:48;-2.70;99.90
33645;DHT22;19986;48.190;16.366;2024-01-10T06:49:14;-2.70;99.90
33645;DHT22;19986;48.190;16.366;2024-01-10T06:51:41;-2.80;99.90
33645;DHT22;19986;48.190;16.366;2024-01-10T06:54:07;-2.90;99.90
33645;DHT22;19986;48.190;16.366;2024-01-10T06:56:33;-2.90;99.90
33645;DHT22;19986;48.190;16.366;2024-01-10T06:59:00;-2.90;99.90
33645;DHT22;19986;48.190;16.366;2024-01-10T07:01:26;-2.90;99.90
33645;DHT22;19986;48.190;16.366;2024-01-10T07:03:53;-3.00;99.90
33645;DHT22;19986;48.190;16.366;2024-01-10T07:06:22;-2.90;99.90
33645;DHT22;19986;48.190;16.366;2024-01-10T07:08:49;-2.90;99.90
33645;DHT22;19986;48.190;16.366;2024-01-10T07:11:18;-2.80;99.90
33645;DHT22;19986;48.190;16.366;2024-01-10T07:13:47;-2.80;99.90
33645;DHT22;19986;48.190;16.366;2024-01-10T07:16:14;-2.80;99.90
33645;DHT22;19986;48.190;16.366;2024-01-10T07:18:44;-2.80;99.90
33645;DHT22;19986;48.190;16.366;2024-01-10T07:21:12;-2.80;99.90
33645;DHT22;19986;48.190;16.366;2024-01-10T07:23:38;-2.70;99.90
33645;DHT22;19986;48.190;16.366;2024-01-10T07:26:07;-2.60;99.90
33645;DHT22;19986;48.190;16.366;2024-01-10T07:28:33;-2.50;99.90
33645;DHT22;19986;48.190;16.366;2024-01-10T07:30:59;-2.50;99.90
33645;DHT22;19986;48.190;16.366;2024-01-10T07:33:28;-2.40;99.90
33645;DHT22;19986;48.190;16.366;2024-01-10T07:35:57;-2.30;99.90
33645;DHT22;19986;48.190;16.366;2024-01-10T07:38:23;-2.30;99.90
33645;DHT22;19986;48.190;16.366;2024-01-10T07:40:50;-2.30;99.90
33645;DHT22;19986;48.190;16.366;2024-01-10T07:43:16;-2.30;99.90
33645;DHT22;19986;48.190;16.366;2024-01-10T07:45:42;-2.30;99.90
33645;DHT22;19986;48.190;16.366;2024-01-10T07:48:08;-2.30;99.90
33645;DHT22;19986;48.190;16.366;2024-01-10T07:50:34;-2.30;99.90
33645;DHT22;19986;48.190;16.366;2024-01-10T07:53:00;-2.30;99.90
33645;DHT22;19986;48.190;16.366;2024-01-10T07:55:27;-2.20;99.90
33645;DHT22;19986;48.190;16.366;2024-01-10T07:57:55;-2.20;99.90
33645;DHT22;19986;48.190;16.366;2024-01-10T08:00:21;-2.20;99.90
33645;DHT22;19986;48.190;16.366;2024-01-10T08:02:48;-2.20;99.90
33645;DHT22;19986;48.190;16.366;2024-01-10T08:05:15;-2.20;99.90
33645;DHT22;19986;48.190;16.366;2024-01-10T08:07:42;-2.20;99.90
33645;DHT22;19986;48.190;16.366;2024-01-10T08:10:09;-2.10;99.90
33645;DHT22;19986;48.190;16.366;2024-01-10T08:12:38;-2.10;99.90
33645;DHT22;19986;48.190;16.366;2024-01-10T08:15:05;-2.10;99.90
33645;DHT22;19986;48.190;16.366;2024-01-10T08:17:32;-2.10;99.90
33645;DHT22;19986;48.190;16.366;2024-01-10T08:19:59;-2.10;99.90
33645;DHT22;19986;48.190;16.366;2024-01-10T08:22:27;-2.10;99.90
33645;DHT22;19986;48.190;16.366;2024-01-10T08:24:53;-2.10;99.90
33645;DHT22;19986;48.190;16.366;2024-01-10T08:27:19;-2.10;99.90
33645;DHT22;19986;48.190;16.366;2024-01-10T08:29:45;-2.00;99.90
33645;DHT22;19986;48.190;16.366;2024-01-10T08:32:11;-2.00;99.90
33645;DHT22;19986;48.190;16.366;2024-01-10T08:34:37;-2.00;99.90
33645;DHT22;19986;48.190;16.366;2024-01-10T08:37:03;-2.00;99.90
33645;DHT22;19986;48.190;16.366;2024-01-10T08:39:29;-1.90;99.90
33645;DHT22;19986;48.190;16.366;2024-01-10T08:41:57;-1.80;99.90
33645;DHT22;19986;48.190;16.366;2024-01-10T08:44:23;-1.80;99.90
33645;DHT22;19986;48.190;16.366;2024-01-10T08:46:49;-1.70;99.90
33645;DHT22;19986;48.190;16.366;2024-01-10T08:49:17;-1.70;99.90
33645;DHT22;19986;48.190;16.366;2024-01-10T08:51:43;-1.70;99.90
33645;DHT22;19986;48.190;16.366;2024-01-10T08:54:10;-1.60;99.90
33645;DHT22;19986;48.190;16.366;2024-01-10T08:56:39;-1.50;99.90
33645;DHT22;19986;48.190;16.366;2024-01-10T08:59:05;-1.50;99.90
33645;DHT22;19986;48.190;16.366;2024-01-10T09:01:31;-1.50;99.90
33645;DHT22;19986;48.190;16.366;2024-01-10T09:03:58;-1.50;99.90
33645;DHT22;19986;48.190;16.366;2024-01-10T09:06:24;-1.50;99.90
33645;DHT22;19986;48.190;16.366;2024-01-10T09:08:50;-1.40;99.90
33645;DHT22;19986;48.190;16.366;2024-01-10T09:11:15;-1.30;99.90
33645;DHT22;19986;48.190;16.366;2024-01-10T09:13:43;-1.30;99.90
33645;DHT22;19986;48.190;16.366;2024-01-10T09:16:09;-1.10;99.90
33645;DHT22;19986;48.190;16.366;2024-01-10T09:18:35;-1.00;99.90
33645;DHT22;19986;48.190;16.366;2024-01-10T09:21:01;-0.90;99.90
33645;DHT22;19986;48.190;16.366;2024-01-10T09:23:27;-0.90;99.90
33645;DHT22;19986;48.190;16.366;2024-01-10T09:25:54;-0.80;99.90
33645;DHT22;19986;48.190;16.366;2024-01-10T09:28:21;-0.70;99.90
33645;DHT22;19986;48.190;16.366;2024-01-10T09:30:47;-0.60;99.90
33645;DHT22;19986;48.190;16.366;2024-01-10T09:33:13;-0.50;99.90
33645;DHT22;19986;48.190;16.366;2024-01-10T09:35:39;-0.40;99.90
33645;DHT22;19986;48.190;16.366;2024-01-10T09:38:05;-0.40;99.90
33645;DHT22;19986;48.190;16.366;2024-01-10T09:40:31;-0.40;99.90
33645;DHT22;19986;48.190;16.366;2024-01-10T09:42:57;-0.30;99.90
33645;DHT22;19986;48.190;16.366;2024-01-10T09:45:23;-0.30;99.90
33645;DHT22;19986;48.190;16.366;2024-01-10T09:47:55;-0.30;99.90
33645;DHT22;19986;48.190;16.366;2024-01-10T09:50:21;-0.30;99.90
33645;DHT22;19986;48.190;16.366;2024-01-10T09:52:54;-0.20;99.90
33645;DHT22;19986;48.190;16.366;2024-01-10T09:55:26;-0.20;99.90
33645;DHT22;19986;48.190;16.366;2024-01-10T09:57:55;-0.10;99.90
33645;DHT22;19986;48.190;16.366;2024-01-10T10:00:22;0.00;99.90
33645;DHT22;19986;48.190;16.366;2024-01-10T10:02:51;0.00;99.90
33645;DHT22;19986;48.190;16.366;2024-01-10T10:05:20;0.00;99.90
33645;DHT22;19986;48.190;16.366;2024-01-10T10:07:49;0.00;99.90
33645;DHT22;19986;48.190;16.366;2024-01-10T10:10:16;0.10;99.90
33645;DHT22;19986;48.190;16.366;2024-01-10T10:12:45;0.30;99.90
33645;DHT22;19986;48.190;16.366;2024-01-10T10:15:16;0.30;99.90
33645;DHT22;19986;48.190;16.366;2024-01-10T10:17:46;0.20;99.90
33645;DHT22;19986;48.190;16.366;2024-01-10T10:20:34;0.20;99.90
33645;DHT22;19986;48.190;16.366;2024-01-10T10:23:05;0.30;99.90
33645;DHT22;19986;48.190;16.366;2024-01-10T10:25:36;0.30;99.90
33645;DHT22;19986;48.190;16.366;2024-01-10T10:28:04;0.30;99.90
33645;DHT22;19986;48.190;16.366;2024-01-10T10:30:31;0.40;99.90
33645;DHT22;19986;48.190;16.366;2024-01-10T10:32:58;0.40;99.90
33645;DHT22;19986;48.190;16.366;2024-01-10T10:35:24;0.40;99.90
33645;DHT22;19986;48.190;16.366;2024-01-10T10:37:51;0.50;99.90
33645;DHT22;19986;48.190;16.366;2024-01-10T10:40:19;0.60;99.90
33645;DHT22;19986;48.190;16.366;2024-01-10T10:42:47;0.60;99.90
33645;DHT22;19986;48.190;16.366;2024-01-10T10:45:18;0.60;99.90
33645;DHT22;19986;48.190;16.366;2024-01-10T10:47:46;0.70;99.90
33645;DHT22;19986;48.190;16.366;2024-01-10T10:50:22;0.80;99.90
33645;DHT22;19986;48.190;16.366;2024-01-10T10:52:49;0.80;99.90
33645;DHT22;19986;48.190;16.366;2024-01-10T10:55:17;0.80;99.90
33645;DHT22;19986;48.190;16.366;2024-01-10T10:57:49;0.80;99.90
33645;DHT22;19986;48.190;16.366;2024-01-10T11:00:18;0.80;99.90
33645;DHT22;19986;48.190;16.366;2024-01-10T11:02:45;0.90;99.90
33645;DHT22;19986;48.190;16.366;2024-01-10T11:05:12;0.90;99.90
33645;DHT22;19986;48.190;16.366;2024-01-10T11:07:39;1.00;99.90
33645;DHT22;19986;48.190;16.366;2024-01-10T11:10:12;1.10;99.90
33645;DHT22;19986;48.190;16.366;2024-01-10T11:15:47;1.30;99.90
33645;DHT22;19986;48.190;16.366;2024-01-10T11:23:52;1.70;99.90
33645;DHT22;19986;48.190;16.366;2024-01-10T11:26:20;1.80;99.90
33645;DHT22;19986;48.190;16.366;2024-01-10T11:28:47;1.90;99.90
33645;DHT22;19986;48.190;16.366;2024-01-10T11:31:14;2.00;99.90
33645;DHT22;19986;48.190;16.366;2024-01-10T11:33:41;2.10;99.90
33645;DHT22;19986;48.190;16.366;2024-01-10T11:36:17;2.20;99.90
33645;DHT22;19986;48.190;16.366;2024-01-10T11:39:01;2.20;99.90
33645;DHT22;19986;48.190;16.366;2024-01-10T11:41:32;2.30;99.90
33645;DHT22;19986;48.190;16.366;2024-01-10T11:46:46;2.50;99.90
33645;DHT22;19986;48.190;16.366;2024-01-10T11:49:17;2.50;99.90
33645;DHT22;19986;48.190;16.366;2024-01-10T11:54:10;2.60;99.90
33645;DHT22;19986;48.190;16.366;2024-01-10T11:56:40;2.70;99.90
33645;DHT22;19986;48.190;16.366;2024-01-10T11:59:11;2.70;99.90
33645;DHT22;19986;48.190;16.366;2024-01-10T12:01:38;2.70;99.90
33645;DHT22;19986;48.190;16.366;2024-01-10T12:04:05;2.70;99.90
33645;DHT22;19986;48.190;16.366;2024-01-10T12:06:35;2.90;99.90
33645;DHT22;19986;48.190;16.366;2024-01-10T12:09:02;2.90;99.90
33645;DHT22;19986;48.190;16.366;2024-01-10T12:11:40;3.00;99.90
33645;DHT22;19986;48.190;16.366;2024-01-10T12:14:08;3.00;99.90
33645;DHT22;19986;48.190;16.366;2024-01-10T12:16:35;3.10;99.90
33645;DHT22;19986;48.190;16.366;2024-01-10T12:19:01;3.20;99.90
33645;DHT22;19986;48.190;16.366;2024-01-10T12:21:27;3.20;99.90
33645;DHT22;19986;48.190;16.366;2024-01-10T12:23:53;3.20;99.90
33645;DHT22;19986;48.190;16.366;2024-01-10T12:26:20;3.20;99.90
33645;DHT22;19986;48.190;16.366;2024-01-10T12:28:54;3.20;99.90
33645;DHT22;19986;48.190;16.366;2024-01-10T12:31:20;3.30;99.90
33645;DHT22;19986;48.190;16.366;2024-01-10T12:33:49;3.20;99.90
33645;DHT22;19986;48.190;16.366;2024-01-10T12:36:17;3.20;99.90
33645;DHT22;19986;48.190;16.366;2024-01-10T12:38:45;3.20;99.90
33645;DHT22;19986;48.190;16.366;2024-01-10T12:41:11;3.20;99.90
33645;DHT22;19986;48.190;16.366;2024-01-10T12:43:37;3.20;99.90
33645;DHT22;19986;48.190;16.366;2024-01-10T12:46:07;3.20;99.90
33645;DHT22;19986;48.190;16.366;2024-01-10T12:48:33;3.20;99.90
33645;DHT22;19986;48.190;16.366;2024-01-10T12:51:04;3.10;99.90
33645;DHT22;19986;48.190;16.366;2024-01-10T12:53:43;3.00;99.90
33645;DHT22;19986;48.190;16.366;2024-01-10T12:56:12;3.00;99.90
33645;DHT22;19986;48.190;16.366;2024-01-10T12:58:40;3.00;99.90
33645;DHT22;19986;48.190;16.366;2024-01-10T13:01:10;3.00;99.90
33645;DHT22;19986;48.190;16.366;2024-01-10T13:03:38;2.90;99.90
33645;DHT22;19986;48.190;16.366;2024-01-10T13:06:05;2.90;99.90
33645;DHT22;19986;48.190;16.366;2024-01-10T13:08:32;2.90;99.90
33645;DHT22;19986;48.190;16.366;2024-01-10T13:10:58;2.90;99.90
33645;DHT22;19986;48.190;16.366;2024-01-10T13:13:25;2.90;99.90
33645;DHT22;19986;48.190;16.366;2024-01-10T13:15:51;2.90;99.90
33645;DHT22;19986;48.190;16.366;2024-01-10T13:18:34;2.80;99.90
33645;DHT22;19986;48.190;16.366;2024-01-10T13:21:03;2.80;99.90
33645;DHT22;19986;48.190;16.366;2024-01-10T13:23:30;2.80;99.90
33645;DHT22;19986;48.190;16.366;2024-01-10T13:25:56;2.80;99.90
33645;DHT22;19986;48.190;16.366;2024-01-10T13:28:25;2.80;99.90
33645;DHT22;19986;48.190;16.366;2024-01-10T13:30:51;2.90;99.90
33645;DHT22;19986;48.190;16.366;2024-01-10T13:33:18;3.00;99.90
33645;DHT22;19986;48.190;16.366;2024-01-10T13:35:45;3.00;99.90
33645;DHT22;19986;48.190;16.366;2024-01-10T13:38:11;3.10;99.90
33645;DHT22;19986;48.190;16.366;2024-01-10T13:40:37;3.00;99.90
33645;DHT22;19986;48.190;16.366;2024-01-10T13:43:04;3.10;99.90
33645;DHT22;19986;48.190;16.366;2024-01-10T13:45:45;3.20;99.90
33645;DHT22;19986;48.190;16.366;2024-01-10T13:48:11;3.20;99.90
33645;DHT22;19986;48.190;16.366;2024-01-10T13:50:37;3.20;99.90
33645;DHT22;19986;48.190;16.366;2024-01-10T13:53:04;3.20;99.90
33645;DHT22;19986;48.190;16.366;2024-01-10T13:55:31;3.20;99.90
33645;DHT22;19986;48.190;16.366;2024-01-10T13:57:57;3.30;99.90
33645;DHT22;19986;48.190;16.366;2024-01-10T14:00:23;3.40;99.90
33645;DHT22;19986;48.190;16.366;2024-01-10T14:02:49;3.40;99.90
33645;DHT22;19986;48.190;16.366;2024-01-10T14:05:15;3.40;99.90
33645;DHT22;19986;48.190;16.366;2024-01-10T14:07:42;3.50;99.90
33645;DHT22;19986;48.190;16.366;2024-01-10T14:10:10;3.40;99.90
33645;DHT22;19986;48.190;16.366;2024-01-10T14:12:37;3.50;99.90
33645;DHT22;19986;48.190;16.366;2024-01-10T14:15:04;3.50;99.90
33645;DHT22;19986;48.190;16.366;2024-01-10T14:17:31;3.50;99.90
33645;DHT22;19986;48.190;16.366;2024-01-10T14:19:57;3.60;99.90
33645;DHT22;19986;48.190;16.366;2024-01-10T14:22:23;3.50;99.90
33645;DHT22;19986;48.190;16.366;2024-01-10T14:24:51;3.60;99.90
33645;DHT22;19986;48.190;16.366;2024-01-10T14:27:16;3.60;99.90
33645;DHT22;19986;48.190;16.366;2024-01-10T14:29:42;3.60;99.90
33645;DHT22;19986;48.190;16.366;2024-01-10T14:32:09;3.60;99.90
33645;DHT22;19986;48.190;16.366;2024-01-10T14:34:39;3.50;99.90
33645;DHT22;19986;48.190;16.366;2024-01-10T14:37:06;3.50;99.90
33645;DHT22;19986;48.190;16.366;2024-01-10T14:39:34;3.50;99.90
33645;DHT22;19986;48.190;16.366;2024-01-10T14:42:00;3.50;99.90
33645;DHT22;19986;48.190;16.366;2024-01-10T14:44:27;3.50;99.90
33645;DHT22;19986;48.190;16.366;2024-01-10T14:46:53;3.50;99.90
33645;DHT22;19986;48.190;16.366;2024-01-10T14:49:20;3.50;99.90
33645;DHT22;19986;48.190;16.366;2024-01-10T14:51:46;3.50;99.90
33645;DHT22;19986;48.190;16.366;2024-01-10T14:54:13;3.60;99.90
33645;DHT22;19986;48.190;16.366;2024-01-10T14:56:39;3.60;99.90
33645;DHT22;19986;48.190;16.366;2024-01-10T14:59:11;3.50;99.90
33645;DHT22;19986;48.190;16.366;2024-01-10T15:01:43;3.50;99.90
33645;DHT22;19986;48.190;16.366;2024-01-10T15:04:10;3.50;99.90
33645;DHT22;19986;48.190;16.366;2024-01-10T15:06:36;3.50;99.90
33645;DHT22;19986;48.190;16.366;2024-01-10T15:09:01;3.50;99.90
33645;DHT22;19986;48.190;16.366;2024-01-10T15:11:28;3.50;99.90
33645;DHT22;19986;48.190;16.366;2024-01-10T15:13:54;3.50;99.90
33645;DHT22;19986;48.190;16.366;2024-01-10T15:16:20;3.40;99.90
33645;DHT22;19986;48.190;16.366;2024-01-10T15:18:46;3.50;99.90
33645;DHT22;19986;48.190;16.366;2024-01-10T15:21:19;3.40;99.90
33645;DHT22;19986;48.190;16.366;2024-01-10T15:23:45;3.40;99.90
33645;DHT22;19986;48.190;16.366;2024-01-10T15:26:17;3.40;99.90
33645;DHT22;19986;48.190;16.366;2024-01-10T15:28:47;3.40;99.90
33645;DHT22;19986;48.190;16.366;2024-01-10T15:31:21;3.40;99.90
33645;DHT22;19986;48.190;16.366;2024-01-10T15:33:57;3.30;99.90